createdAt,value
2022-08-16T00:02:33.692Z,8.48
2022-08-16T00:05:02.494Z,7.80
2022-08-16T00:07:30.896Z,8.68
2022-08-16T00:10:00.540Z,9.07
2022-08-16T00:12:30.310Z,8.02
2022-08-16T00:15:01.191Z,8.45
2022-08-16T00:17:29.435Z,7.93
2022-08-16T00:20:20.946Z,8.35
2022-08-16T00:22:49.176Z,8.90
2022-08-16T00:26:33.582Z,8.13
2022-08-16T00:28:13.249Z,7.65
2022-08-16T00:30:41.239Z,8.00
2022-08-16T00:33:10.167Z,9.52
2022-08-16T00:35:39.336Z,9.38
2022-08-16T00:38:40.619Z,9.95
2022-08-16T00:40:57.548Z,9.82
2022-08-16T00:43:42.503Z,9.70
2022-08-16T00:46:34.156Z,9.70
2022-08-16T00:49:07.087Z,9.45
2022-08-16T00:51:46.768Z,9.35
2022-08-16T00:54:25.937Z,10.65
2022-08-16T00:57:02.418Z,10.25
2022-08-16T00:59:37.857Z,10.10
2022-08-16T01:02:30.509Z,9.77
2022-08-16T01:05:10.325Z,10.20
2022-08-16T01:07:51.323Z,10.10
2022-08-16T01:10:31.967Z,10.35
2022-08-16T01:13:12.027Z,10.18
2022-08-16T01:15:47.621Z,9.82
2022-08-16T01:18:40.678Z,10.43
2022-08-16T01:21:25.294Z,10.60
2022-08-16T01:24:52.370Z,10.32
2022-08-16T01:27:15.110Z,10.00
2022-08-16T01:29:58.136Z,10.40
2022-08-16T01:32:33.442Z,9.88
2022-08-16T01:35:16.979Z,10.43
2022-08-16T01:37:54.003Z,10.82
2022-08-16T01:40:28.822Z,10.75
2022-08-16T01:42:57.786Z,10.82
2022-08-16T01:45:39.678Z,10.43
2022-08-16T01:48:19.520Z,11.82
2022-08-16T01:51:09.204Z,12.48
2022-08-16T01:53:42.012Z,11.30
2022-08-16T01:56:29.594Z,11.27
2022-08-16T01:59:05.091Z,11.52
2022-08-16T02:01:34.701Z,12.85
2022-08-16T02:04:11.122Z,13.35
2022-08-16T02:06:46.765Z,13.88
2022-08-16T02:09:25.489Z,14.25
2022-08-16T02:12:50.187Z,14.55
2022-08-16T02:14:56.275Z,13.43
2022-08-16T02:17:25.578Z,13.57
2022-08-16T02:19:59.454Z,13.38
2022-08-16T02:22:34.908Z,13.60
2022-08-16T02:25:14.718Z,13.18
2022-08-16T02:27:50.837Z,13.57
2022-08-16T02:30:35.824Z,13.07
2022-08-16T02:33:12.873Z,12.90
2022-08-16T02:35:54.499Z,12.93
2022-08-16T02:38:31.470Z,13.52
2022-08-16T02:41:02.397Z,11.75
2022-08-16T02:43:38.042Z,12.40
2022-08-16T02:46:09.601Z,12.55
2022-08-16T02:48:39.580Z,13.38
2022-08-16T02:51:18.509Z,14.43
2022-08-16T02:53:52.303Z,14.80
2022-08-16T02:56:22.101Z,15.95
2022-08-16T02:58:53.432Z,15.15
2022-08-16T03:01:33.775Z,16.17
2022-08-16T03:04:49.915Z,15.85
2022-08-16T03:07:14.413Z,15.20
2022-08-16T03:09:46.092Z,14.70
2022-08-16T03:12:19.305Z,14.93
2022-08-16T03:14:49.747Z,14.55
2022-08-16T03:17:23.381Z,13.93
2022-08-16T03:20:04.142Z,14.18
2022-08-16T03:22:37.410Z,14.48
2022-08-16T03:25:16.035Z,13.95
2022-08-16T03:27:53.648Z,13.85
2022-08-16T03:30:29.177Z,13.40
2022-08-16T03:33:05.462Z,12.98
2022-08-16T03:35:42.047Z,13.35
2022-08-16T03:38:33.110Z,12.80
2022-08-16T03:41:25.374Z,12.52
2022-08-16T03:43:59.750Z,12.27
2022-08-16T03:46:44.961Z,12.45
2022-08-16T03:49:22.615Z,12.00
2022-08-16T03:51:56.552Z,11.82
2022-08-16T03:54:30.326Z,12.27
2022-08-16T03:56:59.041Z,11.90
2022-08-16T03:59:31.379Z,12.27
2022-08-16T04:02:12.159Z,12.00
2022-08-16T04:04:54.867Z,11.07
2022-08-16T04:07:25.117Z,11.95
2022-08-16T04:10:36.088Z,11.48
2022-08-16T04:12:54.626Z,11.57
2022-08-16T04:15:30.174Z,11.85
2022-08-16T04:18:13.133Z,11.68
2022-08-16T04:20:43.148Z,12.20
2022-08-16T04:23:11.161Z,12.10
2022-08-16T04:25:42.178Z,12.30
2022-08-16T04:28:54.319Z,12.82
2022-08-16T04:31:04.115Z,12.07
2022-08-16T04:33:51.282Z,12.52
2022-08-16T04:36:22.090Z,12.27
2022-08-16T04:38:50.251Z,13.05
2022-08-16T04:41:32.388Z,12.40
2022-08-16T04:44:02.858Z,13.10
2022-08-16T04:47:00.834Z,12.90
2022-08-16T04:49:43.751Z,12.75
2022-08-16T04:52:33.174Z,12.38
2022-08-16T04:55:07.395Z,12.35
2022-08-16T04:57:38.339Z,12.45
2022-08-16T05:00:32.512Z,12.65
2022-08-16T05:03:07.524Z,12.60
2022-08-16T05:05:58.974Z,12.48
2022-08-16T05:08:30.991Z,12.45
2022-08-16T05:11:10.339Z,12.23
2022-08-16T05:13:42.814Z,11.75
2022-08-16T05:16:21.670Z,11.88
2022-08-16T05:18:58.350Z,12.32
2022-08-16T05:21:37.994Z,11.00
2022-08-16T05:24:08.986Z,11.90
2022-08-16T05:26:40.905Z,11.32
2022-08-16T05:29:15.203Z,11.30
2022-08-16T05:31:54.199Z,12.10
2022-08-16T05:34:23.115Z,11.85
2022-08-16T05:37:00.756Z,11.52
2022-08-16T05:39:40.806Z,11.68
2022-08-16T05:42:09.873Z,11.27
2022-08-16T05:44:40.028Z,11.45
2022-08-16T05:47:15.320Z,11.02
2022-08-16T05:49:45.581Z,11.35
2022-08-16T05:52:23.336Z,11.40
2022-08-16T05:55:01.220Z,12.45
2022-08-16T05:57:34.419Z,11.43
2022-08-16T06:00:11.932Z,12.40
2022-08-16T06:02:46.345Z,11.30
2022-08-16T06:08:31.708Z,10.70
2022-08-16T06:11:11.111Z,10.13
2022-08-16T06:13:47.323Z,10.48
2022-08-16T06:16:20.355Z,9.95
2022-08-16T06:18:52.669Z,9.75
2022-08-16T06:21:23.679Z,9.52
2022-08-16T06:24:01.464Z,9.73
2022-08-16T06:26:57.952Z,8.15
2022-08-16T06:29:30.790Z,8.30
2022-08-16T06:32:00.565Z,7.70
2022-08-16T06:34:31.691Z,8.50
2022-08-16T06:37:18.779Z,7.85
2022-08-16T06:39:50.009Z,7.50
2022-08-16T06:42:39.536Z,7.38
2022-08-16T06:45:43.354Z,7.22
2022-08-16T06:48:21.201Z,6.57
2022-08-16T06:51:03.451Z,7.32
2022-08-16T06:53:35.529Z,7.00
2022-08-16T06:56:14.728Z,7.07
2022-08-16T06:59:20.437Z,6.72
2022-08-16T07:01:58.051Z,7.00
2022-08-16T07:04:32.815Z,6.88
2022-08-16T07:09:44.143Z,7.20
2022-08-16T07:12:15.360Z,6.68
2022-08-16T07:14:47.738Z,6.90
2022-08-16T07:17:21.579Z,6.53
2022-08-16T07:20:29.500Z,6.30
2022-08-16T07:25:25.840Z,6.28
2022-08-16T07:27:55.049Z,5.90
2022-08-16T07:30:45.248Z,6.40
2022-08-16T07:33:53.601Z,5.43
2022-08-16T07:36:21.889Z,6.10
2022-08-16T07:38:52.141Z,5.57
2022-08-16T07:41:20.777Z,6.05
2022-08-16T07:43:55.496Z,6.13
2022-08-16T07:46:38.667Z,5.80
2022-08-16T07:49:18.157Z,6.15
2022-08-16T07:51:47.793Z,6.35
2022-08-16T07:54:21.116Z,5.85
2022-08-16T07:56:54.159Z,5.20
2022-08-16T07:59:25.957Z,5.22
2022-08-16T08:02:12.113Z,5.90
2022-08-16T08:04:41.208Z,5.38
2022-08-16T08:07:09.893Z,4.93
2022-08-16T08:09:43.432Z,5.70
2022-08-16T08:12:31.375Z,5.50
2022-08-16T08:15:05.857Z,5.20
2022-08-16T08:17:42.116Z,5.07
2022-08-16T08:20:33.721Z,5.38
2022-08-16T08:23:02.926Z,5.47
2022-08-16T08:25:54.972Z,4.80
2022-08-16T08:28:26.678Z,4.40
2022-08-16T08:31:03.619Z,4.75
2022-08-16T08:33:37.745Z,4.80
2022-08-16T08:36:22.150Z,4.90
2022-08-16T08:38:53.356Z,4.82
2022-08-16T08:41:28.721Z,4.95
2022-08-16T08:43:58.913Z,5.88
2022-08-16T08:46:35.578Z,4.85
2022-08-16T08:49:07.842Z,4.82
2022-08-16T08:51:41.846Z,5.05
2022-08-16T08:54:18.660Z,5.32
2022-08-16T08:56:52.315Z,4.80
2022-08-16T08:59:34.834Z,5.60
2022-08-16T09:02:13.029Z,4.45
2022-08-16T09:04:47.825Z,5.10
2022-08-16T09:07:54.722Z,4.75
2022-08-16T09:10:34.450Z,5.15
2022-08-16T09:13:10.980Z,4.43
2022-08-16T09:15:49.197Z,4.20
2022-08-16T09:18:26.439Z,5.93
2022-08-16T09:20:59.048Z,4.70
2022-08-16T09:23:36.486Z,4.93
2022-08-16T09:26:44.540Z,5.20
2022-08-16T09:29:14.835Z,4.45
2022-08-16T09:31:47.137Z,5.32
2022-08-16T09:34:23.202Z,5.43
2022-08-16T09:36:53.968Z,5.10
2022-08-16T09:39:22.631Z,5.22
2022-08-16T09:41:53.270Z,5.28
2022-08-16T09:45:11.504Z,4.85
2022-08-16T09:47:12.425Z,5.32
2022-08-16T09:49:41.675Z,5.10
2022-08-16T09:52:11.172Z,5.25
2022-08-16T09:54:44.562Z,4.97
2022-08-16T09:57:13.732Z,4.50
2022-08-16T09:59:42.391Z,5.05
2022-08-16T10:02:22.915Z,5.10
2022-08-16T10:04:58.597Z,4.22
2022-08-16T10:07:56.013Z,4.40
2022-08-16T10:10:18.987Z,4.15
2022-08-16T10:13:16.314Z,4.22
2022-08-16T10:15:55.201Z,4.10
2022-08-16T10:19:00.841Z,4.30
2022-08-16T10:21:17.650Z,4.25
2022-08-16T10:23:48.892Z,4.75
2022-08-16T10:27:20.517Z,3.97
2022-08-16T10:29:06.091Z,3.80
2022-08-16T10:31:43.428Z,4.22
2022-08-16T10:34:30.748Z,4.10
2022-08-16T10:37:03.391Z,3.80
2022-08-16T10:39:40.929Z,4.40
2022-08-16T10:42:10.436Z,4.00
2022-08-16T10:44:42.684Z,3.80
2022-08-16T10:47:22.372Z,3.90
2022-08-16T10:49:50.616Z,3.60
2022-08-16T10:52:20.221Z,3.28
2022-08-16T10:57:36.885Z,3.33
2022-08-16T11:00:21.071Z,3.20
2022-08-16T11:02:58.565Z,3.25
2022-08-16T11:05:58.998Z,3.15
2022-08-16T11:08:31.297Z,3.30
2022-08-16T11:11:18.370Z,3.67
2022-08-16T11:14:10.908Z,3.50
2022-08-16T11:19:25.945Z,3.20
2022-08-16T11:22:23.043Z,3.50
2022-08-16T11:25:11.471Z,3.35
2022-08-16T11:27:37.352Z,3.58
2022-08-16T11:30:12.120Z,3.50
2022-08-16T11:32:44.163Z,3.50
2022-08-16T11:35:19.047Z,3.85
2022-08-16T11:38:46.775Z,3.40
2022-08-16T11:41:01.819Z,3.55
2022-08-16T11:43:34.752Z,3.50
2022-08-16T11:46:27.864Z,3.63
2022-08-16T11:48:58.322Z,3.30
2022-08-16T11:51:26.236Z,3.70
2022-08-16T11:53:54.542Z,4.35
2022-08-16T11:56:51.607Z,3.60
2022-08-16T11:59:13.146Z,3.60
2022-08-16T12:01:44.221Z,3.60
2022-08-16T12:04:28.341Z,3.60
2022-08-16T12:06:57.281Z,3.72
2022-08-16T12:09:29.340Z,4.00
2022-08-16T12:12:02.652Z,4.03
2022-08-16T12:14:35.283Z,3.77
2022-08-16T12:17:08.760Z,3.58
2022-08-16T12:19:37.150Z,3.80
2022-08-16T12:22:18.898Z,3.83
2022-08-16T12:24:51.149Z,3.50
2022-08-16T12:27:25.375Z,2.97
2022-08-16T12:29:54.892Z,3.63
2022-08-16T12:32:39.561Z,3.30
2022-08-16T12:35:18.374Z,3.30
2022-08-16T12:37:55.479Z,3.25
2022-08-16T12:40:32.407Z,3.63
2022-08-16T12:43:07.877Z,3.30
2022-08-16T12:45:48.803Z,3.50
2022-08-16T12:48:39.517Z,3.40
2022-08-16T12:51:22.232Z,3.47
2022-08-16T12:53:56.111Z,3.33
2022-08-16T12:56:33.374Z,3.00
2022-08-16T12:59:12.601Z,3.28
2022-08-16T13:01:50.461Z,3.20
2022-08-16T13:04:20.483Z,3.55
2022-08-16T13:06:50.207Z,2.83
2022-08-16T13:09:26.866Z,3.45
2022-08-16T13:12:03.266Z,3.17
2022-08-16T13:14:38.557Z,3.15
2022-08-16T13:17:18.775Z,3.33
2022-08-16T13:20:09.274Z,3.35
2022-08-16T13:22:44.246Z,3.47
2022-08-16T13:25:21.126Z,3.63
2022-08-16T13:28:01.816Z,3.47
2022-08-16T13:30:44.900Z,3.55
2022-08-16T13:33:26.011Z,3.30
2022-08-16T13:35:59.596Z,3.63
2022-08-16T13:38:37.066Z,3.45
2022-08-16T13:41:10.933Z,3.25
2022-08-16T13:43:40.163Z,3.60
2022-08-16T13:46:10.905Z,3.53
2022-08-16T13:48:44.214Z,3.42
2022-08-16T13:51:18.069Z,3.72
2022-08-16T13:53:54.608Z,3.67
2022-08-16T13:56:37.033Z,3.80
2022-08-16T13:59:14.422Z,3.35
2022-08-16T14:01:55.284Z,3.40
2022-08-16T14:04:30.027Z,3.90
2022-08-16T14:07:01.480Z,3.25
2022-08-16T14:09:33.830Z,3.25
2022-08-16T14:12:17.786Z,3.30
2022-08-16T14:14:46.805Z,3.45
2022-08-16T14:17:18.741Z,3.30
2022-08-16T14:19:48.761Z,3.50
2022-08-16T14:22:30.327Z,3.80
2022-08-16T14:25:03.308Z,3.55
2022-08-16T14:27:38.917Z,3.38
2022-08-16T14:30:15.469Z,3.53
2022-08-16T14:32:50.969Z,3.50
2022-08-16T14:35:36.267Z,3.10
2022-08-16T14:38:11.080Z,3.65
2022-08-16T14:40:52.684Z,3.63
2022-08-16T14:43:25.706Z,3.50
2022-08-16T14:45:58.108Z,3.53
2022-08-16T14:48:27.517Z,3.40
2022-08-16T14:50:56.062Z,3.70
2022-08-16T14:53:26.390Z,3.38
2022-08-16T14:55:55.067Z,3.33
2022-08-16T14:58:34.954Z,3.30
2022-08-16T15:01:05.635Z,3.72
2022-08-16T15:03:37.557Z,3.40
2022-08-16T15:06:08.439Z,3.25
2022-08-16T15:08:40.952Z,2.90
2022-08-16T15:11:09.525Z,3.58
2022-08-16T15:13:37.395Z,3.38
2022-08-16T15:16:07.454Z,3.50
2022-08-16T15:18:36.831Z,3.40
2022-08-16T15:21:08.667Z,3.60
2022-08-16T15:23:40.382Z,3.40
2022-08-16T15:26:09.419Z,3.58
2022-08-16T15:28:38.377Z,3.60
2022-08-16T15:31:10.349Z,3.30
2022-08-16T15:33:50.122Z,3.30
2022-08-16T15:36:21.113Z,3.53
2022-08-16T15:38:56.257Z,3.33
2022-08-16T15:42:01.534Z,3.22
2022-08-16T15:44:38.915Z,3.33
2022-08-16T15:47:25.663Z,3.22
2022-08-16T15:49:56.324Z,3.25
2022-08-16T15:52:30.356Z,3.25
2022-08-16T15:55:12.634Z,3.10
2022-08-16T15:57:49.939Z,3.38
2022-08-16T16:00:20.665Z,3.50
2022-08-16T16:02:49.633Z,3.10
2022-08-16T16:05:19.777Z,3.28
2022-08-16T16:07:56.617Z,3.33
2022-08-16T16:10:37.411Z,3.28
2022-08-16T16:13:09.512Z,3.03
2022-08-16T16:15:41.123Z,3.00
2022-08-16T16:18:11.945Z,3.30
2022-08-16T16:20:47.401Z,3.50
2022-08-16T16:23:20.964Z,2.97
2022-08-16T16:25:53.063Z,3.20
2022-08-16T16:29:06.195Z,3.35
2022-08-16T16:31:19.065Z,3.20
2022-08-16T16:33:56.019Z,3.03
2022-08-16T16:36:28.742Z,3.30
2022-08-16T16:38:58.025Z,2.97
2022-08-16T16:41:28.097Z,2.90
2022-08-16T16:43:57.500Z,2.70
2022-08-16T16:46:42.846Z,2.90
2022-08-16T16:49:14.613Z,3.22
2022-08-16T16:51:47.120Z,3.10
2022-08-16T16:54:27.734Z,2.75
2022-08-16T16:56:58.217Z,2.80
2022-08-16T16:59:28.079Z,3.10
2022-08-16T17:02:39.303Z,2.90
2022-08-16T17:04:47.532Z,3.17
2022-08-16T17:07:17.656Z,2.95
2022-08-16T17:09:52.322Z,3.15
2022-08-16T17:12:25.260Z,3.10
2022-08-16T17:15:12.124Z,3.20
2022-08-16T17:18:00.288Z,3.35
2022-08-16T17:20:29.948Z,3.17
2022-08-16T17:23:00.084Z,2.95
2022-08-16T17:25:36.411Z,3.15
2022-08-16T17:28:57.813Z,3.08
2022-08-16T17:30:54.177Z,3.13
2022-08-16T17:33:22.962Z,2.80
2022-08-16T17:35:55.262Z,3.53
2022-08-16T17:38:38.987Z,3.58
2022-08-16T17:41:13.726Z,3.33
2022-08-16T17:43:44.904Z,3.47
2022-08-16T17:46:50.831Z,2.95
2022-08-16T17:49:03.813Z,3.17
2022-08-16T17:51:34.020Z,3.22
2022-08-16T17:54:03.439Z,3.40
2022-08-16T17:56:31.744Z,3.38
2022-08-16T17:58:59.605Z,3.33
2022-08-16T18:01:29.122Z,3.63
2022-08-16T18:04:07.205Z,3.30
2022-08-16T18:06:39.450Z,3.40
2022-08-16T18:09:10.420Z,3.40
2022-08-16T18:11:40.680Z,3.53
2022-08-16T18:14:11.399Z,3.83
2022-08-16T18:16:41.215Z,3.72
2022-08-16T18:19:10.599Z,3.67
2022-08-16T18:21:57.234Z,3.70
2022-08-16T18:24:29.439Z,3.50
2022-08-16T18:27:10.262Z,3.17
2022-08-16T18:29:47.843Z,3.63
2022-08-16T18:32:21.987Z,3.55
2022-08-16T18:34:54.531Z,3.85
2022-08-16T18:37:23.773Z,3.88
2022-08-16T18:39:53.190Z,3.80
2022-08-16T18:42:21.331Z,3.85
2022-08-16T18:44:49.293Z,4.40
2022-08-16T18:47:17.228Z,4.32
2022-08-16T18:49:45.370Z,3.92
2022-08-16T18:52:25.110Z,4.18
2022-08-16T18:55:02.098Z,4.03
2022-08-16T18:57:31.124Z,4.30
2022-08-16T18:59:58.986Z,4.00
2022-08-16T19:02:57.163Z,4.93
2022-08-16T19:05:22.924Z,4.47
2022-08-16T19:07:51.444Z,4.85
2022-08-16T19:10:21.446Z,4.90
2022-08-16T19:12:49.575Z,5.10
2022-08-16T19:15:23.415Z,5.03
2022-08-16T19:17:52.540Z,4.75
2022-08-16T19:20:24.367Z,4.60
2022-08-16T19:23:05.114Z,5.05
2022-08-16T19:25:48.792Z,5.43
2022-08-16T19:28:51.273Z,4.78
2022-08-16T19:31:19.079Z,4.63
2022-08-16T19:33:54.864Z,5.07
2022-08-16T19:36:31.413Z,4.85
2022-08-16T19:39:04.980Z,4.63
2022-08-16T19:41:38.415Z,4.57
2022-08-16T19:44:07.783Z,5.03
2022-08-16T19:46:37.863Z,4.70
2022-08-16T19:49:06.841Z,4.75
2022-08-16T19:51:37.596Z,4.90
2022-08-16T19:54:05.880Z,5.28
2022-08-16T19:56:35.201Z,5.32
2022-08-16T19:59:21.044Z,5.50
2022-08-16T20:01:51.880Z,5.60
2022-08-16T20:04:22.584Z,5.63
2022-08-16T20:06:52.409Z,5.47
2022-08-16T20:09:21.991Z,5.45
2022-08-16T20:11:54.988Z,6.10
2022-08-16T20:14:25.543Z,6.28
2022-08-16T20:16:57.028Z,6.20
2022-08-16T20:19:27.297Z,6.43
2022-08-16T20:21:56.813Z,6.00
2022-08-16T20:24:35.516Z,6.35
2022-08-16T20:27:09.502Z,6.45
2022-08-16T20:29:41.222Z,6.83
2022-08-16T20:32:14.250Z,6.30
2022-08-16T20:34:44.905Z,6.50
2022-08-16T20:37:15.665Z,6.40
2022-08-16T20:39:44.860Z,6.65
2022-08-16T20:42:19.056Z,7.35
2022-08-16T20:44:46.988Z,7.35
2022-08-16T20:47:15.438Z,6.95
2022-08-16T20:49:43.384Z,7.30
2022-08-16T20:52:15.609Z,7.65
2022-08-16T20:54:44.883Z,7.72
2022-08-16T20:57:16.350Z,7.72
2022-08-16T20:59:49.869Z,7.43
2022-08-16T21:02:25.150Z,7.78
2022-08-16T21:07:22.822Z,8.43
2022-08-16T21:09:50.659Z,8.85
2022-08-16T21:12:19.947Z,8.65
2022-08-16T21:14:48.150Z,8.50
2022-08-16T21:17:16.513Z,8.23
2022-08-16T21:19:45.050Z,8.38
2022-08-16T21:22:16.826Z,9.20
2022-08-16T21:24:46.619Z,9.05
2022-08-16T21:27:14.949Z,8.68
2022-08-16T21:29:46.901Z,9.02
2022-08-16T21:32:19.722Z,9.32
2022-08-16T21:35:11.337Z,8.73
2022-08-16T21:37:40.882Z,9.85
2022-08-16T21:40:12.121Z,8.85
2022-08-16T21:42:42.540Z,8.48
2022-08-16T21:45:14.388Z,9.20
2022-08-16T21:47:43.501Z,9.10
2022-08-16T21:50:13.643Z,8.75
2022-08-16T21:52:41.480Z,8.82
2022-08-16T21:55:11.696Z,8.93
2022-08-16T21:57:39.666Z,9.15
2022-08-16T22:00:14.529Z,9.63
2022-08-16T22:02:42.554Z,10.48
2022-08-16T22:05:10.824Z,10.00
2022-08-16T22:07:38.795Z,10.40
2022-08-16T22:11:05.113Z,9.52
2022-08-16T22:12:56.730Z,10.05
2022-08-16T22:15:26.177Z,10.32
2022-08-16T22:17:57.250Z,10.30
2022-08-16T22:20:27.633Z,10.38
2022-08-16T22:23:07.850Z,10.38
2022-08-16T22:25:37.747Z,10.23
2022-08-16T22:28:06.183Z,10.48
2022-08-16T22:30:35.779Z,10.25
2022-08-16T22:33:10.217Z,10.70
2022-08-16T22:35:47.346Z,10.43
2022-08-16T22:38:53.824Z,10.75
2022-08-16T22:41:05.125Z,11.27
2022-08-16T22:43:33.276Z,11.32
2022-08-16T22:46:02.948Z,10.82
2022-08-16T22:48:32.090Z,10.93
2022-08-16T22:53:37.341Z,10.85
2022-08-16T22:56:06.040Z,11.73
2022-08-16T22:58:37.081Z,11.30
2022-08-16T23:01:10.198Z,11.70
2022-08-16T23:03:39.181Z,11.50
2022-08-16T23:06:08.923Z,11.60
2022-08-16T23:08:40.905Z,11.57
2022-08-16T23:11:14.327Z,11.82
2022-08-16T23:13:53.266Z,11.77
2022-08-16T23:16:33.588Z,11.80
2022-08-16T23:19:04.148Z,12.10
2022-08-16T23:21:32.779Z,12.63
2022-08-16T23:24:01.710Z,12.07
2022-08-16T23:26:43.914Z,12.65
2022-08-16T23:29:24.272Z,13.40
2022-08-16T23:31:58.682Z,12.52
2022-08-16T23:34:28.747Z,14.27
2022-08-16T23:36:57.693Z,13.98
2022-08-16T23:39:25.841Z,14.02
2022-08-16T23:41:53.804Z,14.30
2022-08-16T23:44:56.518Z,13.93
2022-08-16T23:47:11.729Z,14.20
2022-08-16T23:49:56.135Z,14.30
2022-08-16T23:52:54.739Z,14.27
2022-08-16T23:55:17.389Z,15.35
2022-08-16T23:57:46.257Z,14.68
